MDT,Max TemperatureF,Mean TemperatureF,Min TemperatureF,Max Dew PointF,MeanDew PointF,Min DewpointF,Max Humidity, Mean Humidity, Min Humidity, Max Sea Level PressureIn, Mean Sea Level PressureIn, Min Sea Level PressureIn, Max VisibilityMiles, Mean VisibilityMiles, Min VisibilityMiles, Max Wind SpeedMPH, Mean Wind SpeedMPH, Max Gust SpeedMPH,PrecipitationIn, CloudCover, Events, WindDirDegrees
2010-10-1,84,65,46,32,24,15,46,26,7,30.18,30.09,30.00,10,10,10,12,2,,0.00,0,,238
2010-10-2,84,64,43,29,23,16,47,25,9,30.22,30.10,29.97,10,10,10,12,2,,0.00,0,,224
2010-10-3,82,62,42,31,27,23,60,29,14,30.14,30.01,29.89,10,10,6,18,4,24,0.00,0,,178
2010-10-4,75,62,51,47,38,31,69,42,26,30.12,30.00,29.92,10,9,2,28,5,33,0.02,2,Rain,251
2010-10-5,75,60,46,45,40,32,83,54,21,30.18,30.08,30.00,10,10,9,8,4,,0.01,4,Rain,158
2010-10-6,75,64,53,48,45,39,83,57,30,30.27,30.15,29.99,10,8,0,51,11,64,0.01,4,Rain,265
2010-10-7,75,60,46,48,43,34,93,60,23,30.19,30.07,29.92,10,10,10,28,8,36,0.06,3,Rain,165
2010-10-8,63,55,48,45,34,26,74,47,25,30.29,30.09,29.94,10,10,10,29,11,36,0.00,4,,214
2010-10-9,60,49,39,34,33,30,79,53,35,30.29,30.23,30.18,10,10,10,14,3,23,0.00,5,,12
2010-10-10,66,56,45,37,35,32,68,49,28,30.22,30.13,30.01,10,10,10,14,4,23,0.00,4,,310
2010-10-11,70,53,37,37,33,29,73,50,27,30.14,30.08,29.99,10,10,10,13,2,17,0.00,3,,257
2010-10-12,71,58,46,43,35,27,74,46,20,30.28,30.17,30.08,10,10,5,14,4,,0.00,2,,52
2010-10-13,72,54,36,30,24,19,67,36,14,30.42,30.34,30.25,10,8,1,10,3,,0.00,0,,236
2010-10-14,73,54,35,27,20,14,57,32,10,30.45,30.32,30.19,10,10,6,17,3,,0.00,0,,178
2010-10-15,75,54,34,27,22,17,54,31,12,30.31,30.18,30.03,10,9,1,15,2,,0.00,0,,267
2010-10-16,75,56,36,26,21,15,55,32,11,30.25,30.12,29.99,10,10,10,13,2,,0.00,0,,238
2010-10-17,72,54,37,36,27,20,52,38,20,30.15,30.05,29.95,10,10,10,14,2,,0.00,2,,103
2010-10-18,57,48,42,45,36,30,89,60,43,30.07,30.03,29.96,10,10,7,12,2,,0.00,6,Rain,257
2010-10-19,68,52,39,44,34,23,90,58,21,30.19,30.09,30.00,10,10,8,10,1,,0.00,2,,318
2010-10-20,73,53,33,31,26,23,70,42,15,30.23,30.08,29.95,10,10,10,9,2,,0.00,0,,100
2010-10-21,68,52,37,45,33,25,87,52,25,30.07,29.92,29.77,10,8,1,23,7,32,0.10,3,Rain,260
2010-10-22,50,47,44,45,43,41,93,88,80,29.98,29.86,29.78,10,10,5,15,5,22,0.24,8,Rain,286
2010-10-23,55,49,44,45,43,39,93,83,63,30.04,29.92,29.79,10,9,2,14,4,16,0.33,7,Rain,260
2010-10-24,54,48,41,46,42,39,97,83,66,30.06,29.90,29.60,10,10,10,14,4,,0.01,8,Rain,121
2010-10-25,52,42,33,45,33,26,93,81,60,29.86,29.65,29.29,10,7,0,46,11,63,0.44,7,Fog-Rain-Snow,287
2010-10-26,45,37,30,29,25,20,88,67,40,29.96,29.86,29.78,10,10,4,21,6,30,0.00,6,,249
2010-10-27,45,36,28,26,22,15,89,64,31,30.58,30.31,29.96,10,10,10,14,2,,0.00,3,,212
2010-10-28,52,38,24,26,21,16,81,61,24,30.69,30.56,30.45,10,10,10,9,2,,0.00,0,,156
2010-10-29,61,44,28,36,29,24,85,64,31,30.46,30.31,30.14,10,10,9,7,1,,0.00,0,,179
2010-10-30,66,50,33,37,31,23,89,61,21,30.13,29.99,29.74,10,10,4,39,5,55,0.06,2,Rain,246
2010-10-31,57,45,33,36,33,29,96,71,36,30.24,30.14,30.03,10,10,10,15,3,,0.00,2,,244